Time;durP1;ratioP1;P1;durP2;ratioP2;P2;SDS_P1;SDS_P2;PMS_P1;PMS_P2;Temp;Humidity;BMP_temperature;BMP_pressure;BME280_temperature;BME280_humidity;BME280_pressure;Samples;Min_cycle;Max_cycle;Signal;HPM_P1;HPM_P2
2021/12/19 00:01:32;;;;;;;2.60;0.47;;;31.10;83.70;;;;;;4965623;28;20031;-75
2021/12/19 00:09:30;;;;;;;2.70;0.65;;;30.90;83.10;;;;;;4966113;28;20086;-78
2021/12/19 00:11:59;;;;;;;2.03;0.60;;;30.90;83.50;;;;;;4966697;28;20041;-73
2021/12/19 00:14:26;;;;;;;2.78;0.50;;;30.80;82.80;;;;;;4966700;28;20023;-77
2021/12/19 00:16:55;;;;;;;3.65;0.60;;;30.80;82.60;;;;;;4961960;28;20042;-74
2021/12/19 00:19:22;;;;;;;1.98;0.60;;;30.80;82.70;;;;;;4960374;28;20066;-73
2021/12/19 00:21:50;;;;;;;4.07;0.80;;;30.80;82.60;;;;;;4960853;28;20026;-80
2021/12/19 00:24:18;;;;;;;2.05;1.05;;;30.90;83.00;;;;;;4960932;28;20496;-72
2021/12/19 00:26:45;;;;;;;2.00;0.50;;;30.90;83.40;;;;;;4961854;28;20031;-76
2021/12/19 00:29:13;;;;;;;1.67;0.80;;;31.00;83.00;;;;;;4966423;28;20108;-77
2021/12/19 00:31:41;;;;;;;2.53;0.77;;;31.00;83.10;;;;;;4968610;28;20102;-77
2021/12/19 00:34:08;;;;;;;2.28;0.73;;;31.10;82.30;;;;;;4972256;28;20094;-74
2021/12/19 00:36:35;;;;;;;1.33;0.60;;;31.10;82.30;;;;;;4972140;28;20050;-76
2021/12/19 00:39:03;;;;;;;2.80;0.60;;;31.20;83.00;;;;;;4967607;28;20031;-75
2021/12/19 00:41:30;;;;;;;1.98;0.60;;;31.30;82.20;;;;;;4962433;28;20027;-77
2021/12/19 00:44:23;;;;;;;4.65;0.90;;;31.40;82.40;;;;;;4967506;28;20034;-77
2021/12/19 00:46:51;;;;;;;1.55;0.70;;;31.40;81.70;;;;;;4966340;28;20037;-79
2021/12/19 00:49:25;;;;;;;0.82;0.55;;;31.50;81.80;;;;;;4967302;28;20023;-76
2021/12/19 00:51:52;;;;;;;4.25;0.70;;;31.70;81.90;;;;;;4958451;28;20023;-74
2021/12/19 00:54:19;;;;;;;3.13;0.63;;;31.80;81.00;;;;;;4962272;28;20038;-74
2021/12/19 00:56:48;;;;;;;1.33;0.60;;;32.00;80.60;;;;;;4962311;28;20053;-75
2021/12/19 00:59:16;;;;;;;3.67;0.73;;;32.00;80.70;;;;;;4962386;28;20096;-70
2021/12/19 01:01:45;;;;;;;2.67;0.60;;;32.10;80.10;;;;;;4962060;28;20113;-82
2021/12/19 01:04:18;;;;;;;3.95;0.52;;;32.30;80.80;;;;;;4963458;28;20727;-78
2021/12/19 01:06:48;;;;;;;2.35;0.80;;;32.50;80.00;;;;;;4962533;28;20140;-74
2021/12/19 01:09:15;;;;;;;1.50;0.55;;;32.60;78.80;;;;;;4961198;28;20027;-80
2021/12/19 01:11:47;;;;;;;1.85;0.77;;;32.80;78.90;;;;;;4961621;28;20030;-76
2021/12/19 01:14:16;;;;;;;3.72;0.82;;;33.00;78.00;;;;;;4961286;28;20030;-78
2021/12/19 01:16:43;;;;;;;2.80;0.68;;;33.00;77.40;;;;;;4962696;28;20109;-75
2021/12/19 01:19:11;;;;;;;2.72;0.63;;;33.00;76.60;;;;;;4962744;28;20038;-77
2021/12/19 01:21:38;;;;;;;1.95;0.82;;;33.00;78.00;;;;;;4962011;28;20110;-78
2021/12/19 01:24:06;;;;;;;3.53;0.70;;;33.00;76.20;;;;;;4966034;28;20062;-77
2021/12/19 01:26:33;;;;;;;3.78;0.80;;;33.00;76.30;;;;;;4965559;28;20034;-76
2021/12/19 01:29:01;;;;;;;3.60;0.68;;;33.20;76.20;;;;;;4964923;28;20055;-77
2021/12/19 01:31:28;;;;;;;1.80;0.52;;;33.40;75.40;;;;;;4968512;28;20027;-79
2021/12/19 01:33:55;;;;;;;2.40;0.73;;;33.70;74.30;;;;;;4968352;28;20031;-76
2021/12/19 01:36:22;;;;;;;3.42;0.50;;;33.90;72.60;;;;;;4964179;28;20035;-77
2021/12/19 01:39:33;;;;;;;3.65;0.85;;;34.20;70.20;;;;;;4963868;28;20043;-77
2021/12/19 01:42:20;;;;;;;2.50;0.35;;;34.40;69.90;;;;;;4963595;28;20077;-75
2021/12/19 01:44:48;;;;;;;3.45;0.57;;;34.60;68.60;;;;;;4965127;28;20035;-75
2021/12/19 01:47:16;;;;;;;2.38;0.80;;;34.50;66.60;;;;;;4965788;28;20041;-78
2021/12/19 01:49:43;;;;;;;5.75;0.80;;;34.30;65.90;;;;;;4966015;28;20062;-76
2021/12/19 01:52:11;;;;;;;2.17;0.60;;;34.30;67.00;;;;;;4966210;28;20081;-75
2021/12/19 01:54:38;;;;;;;2.15;0.60;;;34.50;66.90;;;;;;4965746;28;20109;-77
2021/12/19 01:57:07;;;;;;;2.17;0.30;;;34.60;65.80;;;;;;4965833;28;20037;-77
2021/12/19 01:59:34;;;;;;;1.20;0.20;;;34.40;63.20;;;;;;4964298;28;20078;-76
2021/12/19 02:02:04;;;;;;;2.30;0.40;;;34.20;62.70;;;;;;4968895;28;20515;-78
2021/12/19 02:04:33;;;;;;;1.25;0.40;;;34.10;63.50;;;;;;4971855;28;20030;-76
2021/12/19 02:07:02;;;;;;;2.72;0.65;;;33.90;63.50;;;;;;4969919;28;20027;-76
2021/12/19 02:09:29;;;;;;;3.17;0.38;;;33.80;64.20;;;;;;4971120;28;20038;-75
2021/12/19 02:11:59;;;;;;;5.22;0.50;;;33.80;64.70;;;;;;4976046;28;20356;-75
2021/12/19 02:14:26;;;;;;;2.35;0.82;;;33.80;65.70;;;;;;4975695;28;20066;-77
2021/12/19 02:16:53;;;;;;;3.67;0.50;;;33.80;65.00;;;;;;4973510;28;20019;-77
2021/12/19 02:19:24;;;;;;;2.30;0.50;;;33.90;64.90;;;;;;4973790;28;20086;-76
2021/12/19 02:21:51;;;;;;;2.40;0.60;;;34.10;65.00;;;;;;4971695;28;20031;-74
2021/12/19 02:24:19;;;;;;;2.10;0.40;;;34.10;63.20;;;;;;4975342;28;20086;-84
2021/12/19 02:26:49;;;;;;;2.50;0.50;;;34.20;63.70;;;;;;4974198;28;20047;-74
2021/12/19 02:29:17;;;;;;;2.28;0.50;;;34.30;63.90;;;;;;4975322;28;20070;-78
2021/12/19 02:31:45;;;;;;;1.63;0.40;;;34.40;62.60;;;;;;4973289;28;20030;-76
2021/12/19 02:34:26;;;;;;;2.50;0.50;;;34.40;62.70;;;;;;4973181;28;20023;-75
2021/12/19 02:50:20;;;;;;;2.85;0.40;;;35.20;60.00;;;;;;4959813;28;20581;-77
2021/12/19 02:52:48;;;;;;;2.03;0.40;;;35.20;60.80;;;;;;4966674;28;20145;-76
2021/12/19 02:55:17;;;;;;;1.08;0.40;;;35.40;59.10;;;;;;4968918;28;20149;-77
2021/12/19 02:57:46;;;;;;;5.60;0.50;;;35.60;58.70;;;;;;4969255;28;20034;-79
2021/12/19 03:00:21;;;;;;;2.47;0.50;;;35.90;59.10;;;;;;4968929;28;20047;-78
2021/12/19 03:02:49;;;;;;;1.50;0.40;;;36.00;58.70;;;;;;4970226;28;20035;-78
2021/12/19 03:05:16;;;;;;;2.00;0.40;;;36.10;58.10;;;;;;4970342;28;20026;-77
2021/12/19 03:07:45;;;;;;;0.60;0.30;;;36.00;58.50;;;;;;4969260;28;20390;-74
2021/12/19 03:18:20;;;;;;;1.98;0.50;;;36.60;57.10;;;;;;4969548;28;20093;-82
2021/12/19 03:20:47;;;;;;;2.00;0.50;;;36.90;57.60;;;;;;4960088;28;20102;-79
2021/12/19 03:23:16;;;;;;;2.30;0.40;;;37.40;55.60;;;;;;4964843;28;20102;-77
2021/12/19 03:25:44;;;;;;;2.60;0.45;;;37.70;53.40;;;;;;4969419;28;20475;-78
2021/12/19 03:28:13;;;;;;;1.85;0.55;;;37.80;52.10;;;;;;4968647;28;21308;-77
2021/12/19 03:30:42;;;;;;;2.13;0.47;;;37.70;51.60;;;;;;4967058;28;20050;-78
2021/12/19 03:33:11;;;;;;;1.65;0.50;;;37.50;53.10;;;;;;4968033;28;20081;-76
2021/12/19 03:35:39;;;;;;;1.27;0.47;;;37.40;52.60;;;;;;4968618;28;20086;-77
2021/12/19 03:38:10;;;;;;;2.30;0.40;;;37.20;52.60;;;;;;4966738;28;20035;-76
2021/12/19 03:40:40;;;;;;;3.50;0.43;;;36.60;53.40;;;;;;4967564;28;20498;-75
2021/12/19 03:43:22;;;;;;;2.90;0.73;;;36.00;54.10;;;;;;4967994;28;20014;-76
2021/12/19 03:45:50;;;;;;;2.15;0.60;;;35.50;55.00;;;;;;4967359;28;20030;-74
2021/12/19 03:48:19;;;;;;;3.40;0.50;;;35.10;55.80;;;;;;4967658;28;20031;-75
2021/12/19 03:50:50;;;;;;;3.10;0.52;;;35.00;56.60;;;;;;4967822;28;20034;-77
2021/12/19 03:53:21;;;;;;;1.35;0.38;;;34.90;56.50;;;;;;4968000;28;20026;-75
2021/12/19 03:55:50;;;;;;;2.28;0.40;;;34.80;57.50;;;;;;4967980;28;20113;-78
2021/12/19 03:58:19;;;;;;;0.73;0.35;;;35.10;57.20;;;;;;4967548;28;20074;-78
2021/12/19 04:00:47;;;;;;;2.03;0.50;;;35.40;57.10;;;;;;4967529;28;20121;-78
2021/12/19 04:03:18;;;;;;;1.25;0.50;;;35.50;57.40;;;;;;4967642;28;20058;-77
2021/12/19 04:05:47;;;;;;;1.17;0.40;;;35.70;57.00;;;;;;4967198;28;20015;-77
2021/12/19 04:08:15;;;;;;;3.00;0.30;;;35.90;55.80;;;;;;4969790;28;20023;-77
2021/12/19 04:10:43;;;;;;;1.77;0.30;;;36.10;54.90;;;;;;4966751;28;20054;-76
2021/12/19 04:13:10;;;;;;;3.03;0.30;;;36.00;54.60;;;;;;4967935;28;20037;-77
2021/12/19 04:15:38;;;;;;;2.05;0.40;;;35.80;55.20;;;;;;4968211;28;20437;-78
2021/12/19 04:18:05;;;;;;;2.50;0.43;;;35.30;56.00;;;;;;4968314;28;20034;-77
2021/12/19 04:20:33;;;;;;;2.83;0.30;;;34.80;56.80;;;;;;4968063;28;20031;-74
2021/12/19 04:23:00;;;;;;;2.08;0.43;;;34.40;58.60;;;;;;4968216;28;20073;-77
2021/12/19 04:25:28;;;;;;;4.68;0.60;;;33.80;62.10;;;;;;4969226;28;20349;-78
2021/12/19 04:27:55;;;;;;;5.13;1.20;;;33.20;63.40;;;;;;4967811;28;20034;-77
2021/12/19 04:30:25;;;;;;;0.80;0.25;;;32.70;62.30;;;;;;4967546;28;20027;-77
2021/12/19 04:33:07;;;;;;;1.50;0.50;;;32.50;61.70;;;;;;4969235;28;20109;-76
2021/12/19 04:35:39;;;;;;;3.65;0.57;;;32.50;61.50;;;;;;4967688;28;20214;-73
2021/12/19 04:54:00;;;;;;;1.48;0.22;;;33.40;58.20;;;;;;4967626;28;20031;-72
2021/12/19 05:15:15;;;;;;;2.20;0.45;;;33.30;57.30;;;;;;4971751;28;20077;-75
2021/12/19 05:17:43;;;;;;;2.53;0.63;;;33.10;57.60;;;;;;4971276;28;20121;-73
2021/12/19 05:20:18;;;;;;;3.40;0.93;;;32.90;57.80;;;;;;4970855;28;20026;-75
2021/12/19 05:22:51;;;;;;;2.25;0.47;;;32.80;57.70;;;;;;4969826;28;20030;-73
2021/12/19 05:25:18;;;;;;;1.58;0.30;;;32.60;57.80;;;;;;4970755;28;20053;-76
2021/12/19 05:27:51;;;;;;;1.40;0.35;;;32.60;58.20;;;;;;4971896;28;20030;-73
2021/12/19 05:30:19;;;;;;;0.60;0.30;;;32.50;57.90;;;;;;4970266;28;20038;-75
2021/12/19 05:32:49;;;;;;;2.30;0.50;;;32.50;57.80;;;;;;4970540;28;20109;-71
2021/12/19 05:35:24;;;;;;;4.05;0.47;;;32.40;57.10;;;;;;4971260;28;20384;-74
2021/12/19 05:46:08;;;;;;;2.95;0.45;;;32.10;58.10;;;;;;4969685;28;20034;-75
2021/12/19 05:48:35;;;;;;;1.85;0.95;;;32.00;58.10;;;;;;4969644;28;20494;-73
2021/12/19 05:51:05;;;;;;;2.92;0.63;;;31.90;58.90;;;;;;4970095;28;20015;-75
2021/12/19 05:53:32;;;;;;;0.98;0.43;;;31.80;59.10;;;;;;4970099;28;20147;-73
2021/12/19 05:56:00;;;;;;;2.88;0.60;;;31.70;59.30;;;;;;4970392;28;20027;-74
2021/12/19 05:58:27;;;;;;;1.25;0.55;;;31.70;59.20;;;;;;4969668;28;20039;-72
2021/12/19 06:00:54;;;;;;;1.27;0.50;;;31.50;59.30;;;;;;4969741;28;20030;-74
2021/12/19 06:03:22;;;;;;;1.90;0.50;;;31.40;59.90;;;;;;4970210;28;20019;-75
2021/12/19 06:05:51;;;;;;;3.72;0.80;;;31.30;60.00;;;;;;4970774;28;20058;-78
2021/12/19 06:08:19;;;;;;;1.38;0.50;;;31.20;60.00;;;;;;4968966;28;20031;-78
2021/12/19 06:10:46;;;;;;;1.50;0.63;;;31.10;60.70;;;;;;4969110;28;20035;-80
2021/12/19 06:13:13;;;;;;;2.40;0.50;;;31.00;61.00;;;;;;4970488;28;20023;-76
2021/12/19 06:15:41;;;;;;;1.88;0.50;;;30.90;61.90;;;;;;4970812;28;20035;-77
2021/12/19 06:18:09;;;;;;;4.80;0.90;;;30.80;61.60;;;;;;4968935;28;20083;-76
2021/12/19 06:20:36;;;;;;;4.00;0.52;;;30.70;62.70;;;;;;4969958;28;20582;-77
2021/12/19 06:23:04;;;;;;;3.67;1.05;;;30.50;61.30;;;;;;4970049;28;20047;-76
2021/12/19 06:25:31;;;;;;;2.78;0.55;;;30.40;62.60;;;;;;4968186;28;20104;-79
2021/12/19 06:27:58;;;;;;;3.92;0.52;;;30.20;63.00;;;;;;4968147;28;20031;-78
2021/12/19 06:30:27;;;;;;;2.33;0.60;;;30.00;63.30;;;;;;4969702;28;20039;-75
2021/12/19 06:32:55;;;;;;;1.13;0.50;;;29.80;62.40;;;;;;4975895;28;20042;-76
2021/12/19 06:35:28;;;;;;;2.22;0.47;;;29.60;62.20;;;;;;4969350;28;20030;-76
2021/12/19 06:37:56;;;;;;;1.95;0.80;;;29.50;63.00;;;;;;4968686;28;20038;-75
2021/12/19 06:40:24;;;;;;;1.92;0.30;;;29.50;63.60;;;;;;4968812;28;20065;-75
2021/12/19 06:42:52;;;;;;;0.95;0.32;;;29.40;62.70;;;;;;4968790;28;20070;-78
2021/12/19 06:45:21;;;;;;;3.25;0.38;;;29.40;62.60;;;;;;4967410;28;20031;-75
2021/12/19 06:47:48;;;;;;;3.08;0.40;;;29.40;62.90;;;;;;4967328;28;20027;-77
2021/12/19 06:50:17;;;;;;;2.33;0.50;;;29.40;64.10;;;;;;4972228;28;20357;-76
2021/12/19 06:52:46;;;;;;;1.50;0.50;;;29.30;63.40;;;;;;4973388;28;20034;-75
2021/12/19 06:55:16;;;;;;;1.23;0.50;;;29.30;63.00;;;;;;4974083;28;20023;-76
2021/12/19 06:57:47;;;;;;;1.48;0.45;;;29.30;62.80;;;;;;4974290;28;20038;-76
2021/12/19 07:00:20;;;;;;;1.08;0.50;;;29.40;62.40;;;;;;4974248;28;20134;-76
2021/12/19 07:02:48;;;;;;;6.43;1.35;;;29.40;62.00;;;;;;4974381;28;20018;-75
2021/12/19 07:05:15;;;;;;;3.20;0.63;;;29.40;62.30;;;;;;4972575;28;20034;-76
2021/12/19 07:07:42;;;;;;;1.38;0.50;;;29.40;62.50;;;;;;4970929;28;20093;-76
2021/12/19 07:10:10;;;;;;;2.20;0.40;;;29.40;62.50;;;;;;4973653;28;20046;-75
2021/12/19 07:12:39;;;;;;;0.75;0.50;;;29.40;62.40;;;;;;4973902;28;20452;-76
2021/12/19 07:15:07;;;;;;;1.10;0.60;;;29.40;62.70;;;;;;4974445;28;20039;-76
2021/12/19 07:17:34;;;;;;;3.13;0.60;;;29.40;63.10;;;;;;4973759;28;20051;-77
2021/12/19 07:20:02;;;;;;;3.20;0.60;;;29.40;63.40;;;;;;4972495;28;20109;-76
2021/12/19 07:22:30;;;;;;;1.65;0.45;;;29.30;63.50;;;;;;4972870;28;20037;-76
2021/12/19 07:24:57;;;;;;;1.65;0.57;;;29.30;63.90;;;;;;4966435;28;20803;-76
2021/12/19 07:27:24;;;;;;;1.35;0.57;;;29.30;63.90;;;;;;4966144;28;20023;-75
2021/12/19 07:29:56;;;;;;;1.83;0.60;;;29.30;64.40;;;;;;4968659;28;20035;-76
2021/12/19 07:32:23;;;;;;;2.92;0.63;;;29.20;64.50;;;;;;4968246;28;20073;-76
2021/12/19 07:34:51;;;;;;;1.05;0.40;;;29.20;64.60;;;;;;4968240;28;20117;-75
2021/12/19 07:37:20;;;;;;;2.05;0.80;;;29.20;64.80;;;;;;4968624;28;20043;-76
2021/12/19 07:40:03;;;;;;;3.20;0.55;;;29.20;65.40;;;;;;4961614;28;20562;-76
2021/12/19 07:42:30;;;;;;;1.20;0.50;;;29.20;66.20;;;;;;4965261;28;20026;-80
2021/12/19 07:44:57;;;;;;;2.67;0.50;;;29.10;65.90;;;;;;4962452;28;20124;-74
2021/12/19 07:47:25;;;;;;;4.03;0.45;;;29.00;69.90;;;;;;4966501;28;20099;-76
2021/12/19 07:49:53;;;;;;;1.75;0.50;;;28.50;70.90;;;;;;4935005;28;20474;-78
2021/12/19 07:52:23;;;;;;;1.48;0.60;;;28.10;72.60;;;;;;4967041;28;20161;-75
2021/12/19 07:54:50;;;;;;;2.40;0.52;;;27.80;75.00;;;;;;4968220;28;20030;-79
2021/12/19 07:57:18;;;;;;;2.17;0.50;;;27.60;76.50;;;;;;4969572;28;20122;-75
2021/12/19 07:59:46;;;;;;;3.05;0.85;;;27.50;77.30;;;;;;4974271;28;20042;-76
2021/12/19 08:02:13;;;;;;;1.70;0.73;;;27.40;77.90;;;;;;4978312;28;20062;-82
2021/12/19 08:04:41;;;;;;;1.90;0.60;;;27.30;78.50;;;;;;4968405;28;20047;-75
2021/12/19 08:07:12;;;;;;;1.38;0.60;;;27.30;77.10;;;;;;4966483;28;20134;-85
2021/12/19 08:09:57;;;;;;;3.33;0.65;;;27.20;75.40;;;;;;4969756;28;20042;-85
2021/12/19 08:12:25;;;;;;;3.80;0.50;;;27.20;74.10;;;;;;4968308;28;20121;-82
2021/12/19 08:14:53;;;;;;;1.42;0.40;;;27.30;74.50;;;;;;4969346;28;20031;-80
2021/12/19 08:17:23;;;;;;;2.42;0.40;;;27.30;73.50;;;;;;4972614;28;20038;-85
2021/12/19 08:19:51;;;;;;;4.40;0.98;;;27.30;75.20;;;;;;4976235;28;20487;-81
2021/12/19 08:22:20;;;;;;;1.35;0.50;;;27.30;75.20;;;;;;4976728;28;20026;-83
2021/12/19 08:24:49;;;;;;;1.00;0.40;;;27.20;74.60;;;;;;4974053;28;20419;-86
2021/12/19 08:27:17;;;;;;;0.93;0.32;;;27.20;71.90;;;;;;4974974;28;20058;-78
2021/12/19 08:29:46;;;;;;;2.40;0.57;;;27.20;70.40;;;;;;4962712;28;20035;-79
2021/12/19 08:32:15;;;;;;;1.85;0.50;;;27.20;70.80;;;;;;4982092;28;20058;-77
2021/12/19 08:34:42;;;;;;;2.20;0.40;;;27.30;71.30;;;;;;4974788;28;20027;-81
2021/12/19 08:37:10;;;;;;;2.47;0.70;;;27.10;71.80;;;;;;4977778;28;20034;-81
2021/12/19 08:39:38;;;;;;;2.58;0.45;;;27.00;71.00;;;;;;4973224;28;20078;-80
2021/12/19 08:42:09;;;;;;;2.28;0.60;;;27.00;70.90;;;;;;4972756;28;20031;-77
2021/12/19 08:44:39;;;;;;;1.30;0.70;;;26.80;71.80;;;;;;4974887;28;20039;-84
2021/12/19 08:47:10;;;;;;;1.75;0.50;;;26.70;71.70;;;;;;4970128;28;20027;-82
2021/12/19 08:49:41;;;;;;;3.08;0.60;;;26.70;72.20;;;;;;4969330;28;20058;-79
2021/12/19 08:52:10;;;;;;;4.00;2.00;;;26.50;72.60;;;;;;4974411;28;20015;-83
2021/12/19 08:54:38;;;;;;;2.35;0.73;;;26.40;72.80;;;;;;4969519;28;20633;-78
2021/12/19 08:57:05;;;;;;;3.92;1.30;;;26.30;74.10;;;;;;4968034;28;20430;-79
2021/12/19 08:59:33;;;;;;;1.48;0.70;;;26.20;74.70;;;;;;4967860;28;20034;-87
2021/12/19 09:02:01;;;;;;;2.13;0.65;;;26.20;75.20;;;;;;4967534;28;20034;-77
2021/12/19 09:04:30;;;;;;;2.13;0.50;;;26.10;75.30;;;;;;4967486;28;20880;-86
2021/12/19 09:06:59;;;;;;;1.40;0.60;;;26.10;74.90;;;;;;4966744;28;20443;-86
2021/12/19 09:09:28;;;;;;;1.42;0.50;;;26.10;75.60;;;;;;4967215;28;20054;-86
2021/12/19 09:11:55;;;;;;;3.20;0.77;;;26.00;76.60;;;;;;4966752;28;20031;-87
2021/12/19 09:14:23;;;;;;;4.50;1.17;;;26.00;78.90;;;;;;4968199;28;20484;-79
2021/12/19 09:16:50;;;;;;;2.00;0.70;;;26.00;80.40;;;;;;4967503;28;20039;-87
2021/12/19 09:19:18;;;;;;;2.33;0.60;;;25.80;80.80;;;;;;4967352;28;20043;-85
2021/12/19 09:21:46;;;;;;;1.88;0.60;;;25.70;81.10;;;;;;4967505;28;20027;-78
2021/12/19 09:24:13;;;;;;;2.90;0.65;;;25.70;81.00;;;;;;4966743;28;20431;-86
2021/12/19 09:26:41;;;;;;;1.75;0.52;;;25.60;81.00;;;;;;4966821;28;20058;-79
2021/12/19 09:29:08;;;;;;;1.63;0.63;;;25.50;80.80;;;;;;4967817;28;20023;-83
2021/12/19 09:31:36;;;;;;;1.80;0.52;;;25.40;80.40;;;;;;4966000;28;20030;-86
2021/12/19 09:34:03;;;;;;;2.47;0.73;;;25.40;80.80;;;;;;4969393;28;20593;-81
2021/12/19 09:36:31;;;;;;;7.47;1.75;;;25.30;79.70;;;;;;4970142;28;20054;-84
2021/12/19 09:38:58;;;;;;;2.20;0.70;;;25.30;78.30;;;;;;4970813;28;20042;-80
2021/12/19 09:41:29;;;;;;;1.40;0.50;;;25.20;77.70;;;;;;4971187;28;20022;-85
2021/12/19 09:43:58;;;;;;;1.83;0.50;;;25.20;77.50;;;;;;4969620;28;20062;-80
2021/12/19 09:46:31;;;;;;;3.67;0.65;;;25.20;77.00;;;;;;4969441;28;20026;-85
2021/12/19 09:48:58;;;;;;;;;;;25.20;76.80;;;;;;4970803;28;20641;-87
2021/12/19 09:51:25;;;;;;;2.33;0.50;;;25.20;76.70;;;;;;4971014;28;19917;-82
2021/12/19 09:53:54;;;;;;;2.17;0.50;;;25.10;76.10;;;;;;4969902;28;20027;-80
2021/12/19 09:56:21;;;;;;;0.95;0.30;;;25.20;76.20;;;;;;4969031;28;20086;-84
2021/12/19 09:58:50;;;;;;;1.17;0.43;;;25.10;76.30;;;;;;4967577;28;20039;-76
2021/12/19 10:01:18;;;;;;;1.77;0.45;;;25.10;76.50;;;;;;4969102;28;20110;-79
2021/12/19 10:03:45;;;;;;;1.48;0.40;;;25.10;76.50;;;;;;4968842;28;20031;-81
2021/12/19 10:06:31;;;;;;;2.80;0.45;;;25.10;76.60;;;;;;4967324;28;20023;-82
2021/12/19 10:09:18;;;;;;;2.70;0.40;;;25.10;76.70;;;;;;4966015;28;20030;-83
2021/12/19 10:12:12;;;;;;;1.65;0.40;;;25.00;76.40;;;;;;4970456;28;20118;-82
2021/12/19 10:14:41;;;;;;;0.65;0.32;;;25.00;76.50;;;;;;4966465;28;20033;-87
2021/12/19 10:17:17;;;;;;;1.58;0.38;;;25.00;76.70;;;;;;4967177;28;20031;-78
2021/12/19 10:19:46;;;;;;;1.27;0.50;;;24.90;76.90;;;;;;4969106;28;20039;-77
2021/12/19 10:22:31;;;;;;;1.35;0.45;;;24.90;77.30;;;;;;4968344;28;20055;-79
2021/12/19 10:25:19;;;;;;;2.80;0.52;;;24.90;77.40;;;;;;4966735;28;20035;-80
2021/12/19 10:27:51;;;;;;;1.00;0.40;;;24.90;77.70;;;;;;4966422;28;20023;-86
2021/12/19 10:30:35;;;;;;;0.55;0.30;;;24.90;77.60;;;;;;4968363;28;20030;-82
2021/12/19 10:33:09;;;;;;;1.33;0.47;;;24.80;77.70;;;;;;4966772;28;20035;-80
2021/12/19 10:35:41;;;;;;;3.38;0.50;;;24.80;77.90;;;;;;4966625;28;20030;-80
2021/12/19 10:38:19;;;;;;;2.33;0.47;;;24.80;78.10;;;;;;4965137;28;20711;-80
2021/12/19 10:40:49;;;;;;;1.13;0.43;;;24.80;78.30;;;;;;4973573;28;20058;-83
2021/12/19 10:43:18;;;;;;;1.75;0.60;;;24.80;78.40;;;;;;4971390;28;20031;-83
2021/12/19 10:45:51;;;;;;;2.17;0.40;;;24.70;78.80;;;;;;4968196;28;20510;-81
2021/12/19 10:48:29;;;;;;;1.58;0.30;;;24.70;79.10;;;;;;4968992;28;20053;-80
2021/12/19 10:51:03;;;;;;;1.67;0.38;;;24.70;79.20;;;;;;4967974;28;20031;-81
2021/12/19 10:53:44;;;;;;;1.55;0.47;;;24.70;79.60;;;;;;4967014;28;20583;-84
2021/12/19 10:56:23;;;;;;;1.10;0.50;;;24.70;79.90;;;;;;4967629;28;20026;-84
2021/12/19 10:59:06;;;;;;;1.80;0.40;;;24.70;80.20;;;;;;4970465;28;20035;-84
2021/12/19 11:01:35;;;;;;;1.88;0.50;;;24.60;81.00;;;;;;4969759;28;20057;-81
2021/12/19 11:04:12;;;;;;;0.70;0.32;;;24.50;81.80;;;;;;4970055;28;20029;-84
2021/12/19 11:06:41;;;;;;;1.90;0.40;;;24.50;81.30;;;;;;4973538;28;20031;-86
2021/12/19 11:09:31;;;;;;;1.83;0.40;;;24.50;81.50;;;;;;4973539;28;20081;-79
2021/12/19 11:12:00;;;;;;;1.00;0.45;;;24.50;81.60;;;;;;4975393;28;20026;-79
2021/12/19 11:14:34;;;;;;;1.15;0.43;;;24.50;82.00;;;;;;4977900;28;20081;-84
2021/12/19 11:17:06;;;;;;;4.05;0.50;;;24.50;82.40;;;;;;4978573;28;20027;-83
2021/12/19 11:19:34;;;;;;;1.38;0.40;;;24.50;82.40;;;;;;4974455;28;20035;-82
2021/12/19 11:22:03;;;;;;;0.73;0.30;;;24.50;82.80;;;;;;4974369;28;20050;-84
2021/12/19 11:24:31;;;;;;;4.68;0.68;;;24.50;83.00;;;;;;4972676;28;20043;-85
2021/12/19 11:27:01;;;;;;;1.23;0.50;;;24.50;82.80;;;;;;4973546;28;20734;-87
2021/12/19 11:29:29;;;;;;;1.23;0.50;;;24.40;83.30;;;;;;4980857;28;20035;-85
2021/12/19 11:32:00;;;;;;;2.28;0.40;;;24.40;83.50;;;;;;4982699;28;20026;-86
2021/12/19 11:34:45;;;;;;;1.02;0.38;;;24.40;83.70;;;;;;4970116;28;20157;-82
2021/12/19 11:37:21;;;;;;;2.92;0.50;;;24.50;83.80;;;;;;4976775;28;20030;-83
2021/12/19 11:39:54;;;;;;;2.97;0.50;;;24.50;84.20;;;;;;4980908;28;20061;-88
2021/12/19 11:42:34;;;;;;;4.10;0.60;;;24.50;84.10;;;;;;4979881;28;20047;-87
2021/12/19 11:45:31;;;;;;;2.22;0.73;;;24.50;84.00;;;;;;4980315;28;20030;-83
2021/12/19 11:48:08;;;;;;;1.77;0.80;;;24.50;83.90;;;;;;4978078;28;20042;-91
2021/12/19 11:51:12;;;;;;;0.88;0.50;;;24.40;84.50;;;;;;4978281;28;20030;-84
2021/12/19 11:53:43;;;;;;;3.30;0.57;;;24.30;85.00;;;;;;4939926;29;20054;-83
2021/12/19 11:56:18;;;;;;;3.22;0.50;;;24.30;85.70;;;;;;4967751;28;20061;-86
2021/12/19 11:58:49;;;;;;;3.03;0.60;;;24.30;85.80;;;;;;4978972;28;20089;-86
2021/12/19 12:01:24;;;;;;;2.08;0.50;;;24.20;85.90;;;;;;4977845;28;20027;-86
2021/12/19 12:03:57;;;;;;;1.88;0.55;;;24.20;86.20;;;;;;4979727;28;20064;-85
2021/12/19 12:06:40;;;;;;;2.08;0.50;;;24.30;86.50;;;;;;4978283;28;20029;-89
2021/12/19 12:09:20;;;;;;;2.25;0.55;;;24.30;86.90;;;;;;4960714;28;20031;-85
2021/12/19 12:12:03;;;;;;;2.13;0.70;;;24.30;86.60;;;;;;4978972;28;20027;-84
2021/12/19 12:14:55;;;;;;;1.50;0.52;;;24.30;86.80;;;;;;4978909;28;20502;-90
2021/12/19 12:17:38;;;;;;;1.20;0.55;;;24.30;87.30;;;;;;4979459;28;20475;-86
2021/12/19 12:20:17;;;;;;;1.10;0.40;;;24.30;87.10;;;;;;4979756;28;20059;-90
2021/12/19 12:23:08;;;;;;;1.95;0.47;;;24.20;87.40;;;;;;4978004;28;20081;-85
2021/12/19 12:25:40;;;;;;;1.73;0.60;;;24.20;87.70;;;;;;4978969;28;20431;-90
2021/12/19 12:28:10;;;;;;;2.25;0.50;;;24.20;88.00;;;;;;4978235;28;20023;-88
2021/12/19 12:30:45;;;;;;;2.28;0.60;;;24.20;88.20;;;;;;4977028;28;20074;-85
2021/12/19 12:33:16;;;;;;;1.52;0.47;;;24.20;88.30;;;;;;4977951;28;20098;-88
2021/12/19 12:35:45;;;;;;;0.88;0.50;;;24.20;88.10;;;;;;4976617;28;20027;-87
2021/12/19 12:38:14;;;;;;;2.35;0.40;;;24.20;88.40;;;;;;4979387;28;20420;-90
2021/12/19 12:43:16;;;;;;;2.00;0.50;;;24.10;88.70;;;;;;4982761;28;20019;-85
2021/12/19 12:46:03;;;;;;;1.75;0.50;;;24.10;89.20;;;;;;4981623;28;20047;-82
2021/12/19 12:48:36;;;;;;;2.40;0.65;;;24.10;89.80;;;;;;4979488;28;20539;-87
2021/12/19 12:51:09;;;;;;;2.30;0.60;;;24.10;89.90;;;;;;4977011;28;20061;-81
2021/12/19 12:53:46;;;;;;;1.27;0.73;;;24.10;90.10;;;;;;4975400;28;20038;-84
2021/12/19 12:56:19;;;;;;;1.38;0.60;;;24.10;90.10;;;;;;4977035;28;20086;-78
2021/12/19 12:58:50;;;;;;;1.98;0.60;;;24.10;90.00;;;;;;4960708;28;20416;-88
2021/12/19 13:01:22;;;;;;;3.70;0.50;;;24.00;89.80;;;;;;4976516;28;20384;-84
2021/12/19 13:04:17;;;;;;;2.35;0.50;;;24.00;90.00;;;;;;4976123;28;20089;-86
2021/12/19 13:06:52;;;;;;;1.88;0.75;;;23.90;90.30;;;;;;4981317;28;20026;-90
2021/12/19 13:09:25;;;;;;;1.27;0.60;;;23.90;90.50;;;;;;4979155;28;20027;-87
2021/12/19 13:12:12;;;;;;;;;;;23.90;90.60;;;;;;4980865;28;20387;-89
2021/12/19 13:14:46;;;;;;;1.50;0.57;;;24.00;90.60;;;;;;4977551;28;19917;-89
2021/12/19 13:17:20;;;;;;;4.13;0.80;;;23.90;90.70;;;;;;4979621;28;20475;-88
2021/12/19 13:19:48;;;;;;;2.38;0.50;;;23.90;90.90;;;;;;4984579;28;20026;-87
2021/12/19 13:22:26;;;;;;;3.03;0.77;;;23.80;91.20;;;;;;4982640;28;20024;-87
2021/12/19 13:24:57;;;;;;;1.67;0.70;;;23.80;91.30;;;;;;4982416;28;20043;-89
2021/12/19 13:27:30;;;;;;;2.33;0.60;;;23.80;91.50;;;;;;4982204;28;20026;-88
2021/12/19 13:30:10;;;;;;;2.33;0.73;;;23.80;91.40;;;;;;4982731;28;20092;-84
2021/12/19 13:32:41;;;;;;;1.83;0.57;;;23.80;91.30;;;;;;4979651;28;20038;-85
2021/12/19 13:35:16;;;;;;;1.60;0.60;;;23.80;91.50;;;;;;4978653;28;20114;-82
2021/12/19 13:37:52;;;;;;;0.75;0.45;;;23.80;91.80;;;;;;4978687;28;20027;-82
2021/12/19 13:40:22;;;;;;;1.77;0.80;;;23.70;91.80;;;;;;4978817;28;20027;-85
2021/12/19 13:42:50;;;;;;;1.25;0.40;;;23.70;92.00;;;;;;4978593;28;20038;-88
2021/12/19 13:45:48;;;;;;;2.20;0.60;;;23.70;92.20;;;;;;4976553;28;20098;-86
2021/12/19 13:48:29;;;;;;;6.50;0.80;;;23.70;92.10;;;;;;4973500;28;20031;-84
2021/12/19 13:51:07;;;;;;;1.98;0.80;;;23.60;92.30;;;;;;4976187;28;20034;-83
2021/12/19 13:53:37;;;;;;;1.05;0.50;;;23.60;92.30;;;;;;4976162;28;20026;-84
2021/12/19 13:56:06;;;;;;;1.48;0.60;;;23.60;92.50;;;;;;4976226;28;20075;-86
2021/12/19 13:58:37;;;;;;;1.50;0.60;;;23.50;92.60;;;;;;4976483;28;20031;-83
2021/12/19 14:01:16;;;;;;;1.77;0.50;;;23.50;92.80;;;;;;4976253;28;20559;-90
2021/12/19 14:03:50;;;;;;;2.08;0.60;;;23.50;92.80;;;;;;4976212;28;20065;-85
2021/12/19 14:06:24;;;;;;;2.05;0.70;;;23.40;93.00;;;;;;4976190;28;20022;-84
2021/12/19 14:08:56;;;;;;;1.55;0.80;;;23.40;93.20;;;;;;4976904;28;20029;-85
2021/12/19 14:11:25;;;;;;;1.88;0.60;;;23.40;93.40;;;;;;4980825;28;20480;-87
2021/12/19 14:14:08;;;;;;;1.92;0.60;;;23.30;93.40;;;;;;4976063;28;20073;-84
2021/12/19 14:16:47;;;;;;;3.92;0.60;;;23.30;93.70;;;;;;4975987;28;20019;-84
2021/12/19 14:19:24;;;;;;;1.45;0.40;;;23.30;93.90;;;;;;4976026;28;20042;-81
2021/12/19 14:22:01;;;;;;;2.90;0.63;;;23.20;93.90;;;;;;4976139;28;20031;-85